Airfield :
LOGIN :

Register | Disclaimer

   EN    FR    IT 

 










Legend :    VFR   Marginal VFR   IFR   Intensive IFR   Very Intensive IFR
Visi :
Ceiling :
>= 8 km
>= 3000ft
5 to 8 km
1000 to 3000 ft
1500m to 5 km
500 to 1000 ft
800 to 1500m
200 to 500 ft
< 800m
< 200 ft
Symbols :   Thunderstorms  Fog  Heavy snow  Heavy precipitations  Wind > 20 kt
SIGMETs :     Misc.  Thunderstorms  Icing  Turbulence  Mountain Waves  Volcanic Ashes







- Airport Elevation : 299 ft
- IATA code : EDM
- Download approach charts


LFRI - La Roche Sur Yon - Les Ajoncs

EXPIRED METARs :
  • 241430Z AUTO 25011KT 220V290 9999 FEW038 SCT044 BKN060 23/14 Q1020 NOSIG
  • 241400Z AUTO 25011KT 210V280 9999 BKN039 BKN047 BKN058 24/14 Q1020 NOSIG
  • 241330Z AUTO 25011KT 210V290 9999 BKN038 BKN056 24/14 Q1020 NOSIG
  • 241300Z AUTO 25010KT 210V290 9999 SCT040 BKN058 23/14 Q1020 NOSIG
  • 241230Z AUTO 24009KT 190V290 9999 FEW040 BKN058 24/13 Q1021 NOSIG
  • 241200Z AUTO 24010KT 200V280 9999 SCT033 BKN040 BKN056 23/13 Q1021 NOSIG

Expired Forecast.
No reported NOTAMs for that airfield.



MET'MAP, your aeronautical weather chart ! - Copyright ORBIFLY December 2007 - Disclaimer

ORBIFLY MET'MAP TEAM :

Programming & Development : Alexandra Zaïnal
Concept & Development : Baudouin d'Aumeries
Co-Development & Prog : Marc-Olivier Méhu
Technical & hardware support : Manuel Goepfert

Contact : metmap@orbifly.com




SOURCES & CREDITS :

   NOAA